Time;durP1;ratioP1;P1;durP2;ratioP2;P2;SDS_P1;SDS_P2;PMS_P1;PMS_P2;Temp;Humidity;BMP_temperature;BMP_pressure;BME280_temperature;BME280_humidity;BME280_pressure;Samples;Min_cycle;Max_cycle;Signal;HPM_P1;HPM_P2
2021/12/31 00:02:22;;;;;;;;;;;16.80;99.90;;;;;;5078324;28;900;-45
2021/12/31 00:04:49;;;;;;;;;;;16.80;99.90;;;;;;5074121;28;1509;-45
2021/12/31 00:07:16;;;;;;;;;;;16.80;99.90;;;;;;5078192;28;926;-46
2021/12/31 00:09:42;;;;;;;;;;;16.80;99.90;;;;;;5077914;28;880;-45
2021/12/31 00:12:08;;;;;;;;;;;16.80;99.90;;;;;;5075660;28;1302;-45
2021/12/31 00:14:37;;;;;;;;;;;16.80;99.90;;;;;;5076806;28;1902;-47
2021/12/31 00:17:03;;;;;;;;;;;16.80;99.90;;;;;;5074724;28;1138;-45
2021/12/31 00:19:32;;;;;;;;;;;16.80;99.90;;;;;;5074024;28;1020;-46
2021/12/31 00:22:00;;;;;;;;;;;16.80;99.90;;;;;;5070651;28;1316;-45
2021/12/31 00:24:27;;;;;;;;;;;16.80;99.90;;;;;;5068764;28;1422;-45
2021/12/31 00:26:54;;;;;;;;;;;16.80;99.90;;;;;;5073544;28;1207;-45
2021/12/31 00:29:21;;;;;;;;;;;16.70;99.90;;;;;;5071618;28;1222;-46
2021/12/31 00:31:48;;;;;;;;;;;16.70;99.90;;;;;;5071362;28;1259;-45
2021/12/31 00:34:15;;;;;;;;;;;16.70;99.90;;;;;;5071616;28;1898;-45
2021/12/31 00:36:47;;;;;;;;;;;16.70;99.90;;;;;;5066342;28;1296;-56
2021/12/31 00:39:13;;;;;;;;;;;16.70;99.90;;;;;;5071850;28;1383;-45
2021/12/31 00:41:39;;;;;;;;;;;16.70;99.90;;;;;;5074258;28;1281;-45
2021/12/31 00:44:05;;;;;;;;;;;16.70;99.90;;;;;;5071357;28;1424;-45
2021/12/31 00:46:32;;;;;;;;;;;16.70;99.90;;;;;;5077305;28;829;-45
2021/12/31 00:49:03;;;;;;;;;;;16.60;99.90;;;;;;5076559;28;887;-56
2021/12/31 00:51:30;;;;;;;;;;;16.60;99.90;;;;;;5045483;28;1028;-55
2021/12/31 00:53:56;;;;;;;;;;;16.60;99.90;;;;;;5068083;28;1981;-46
2021/12/31 00:56:23;;;;;;;;;;;16.60;99.90;;;;;;5068681;28;1388;-45
2021/12/31 00:58:49;;;;;;;;;;;16.60;99.90;;;;;;5072535;28;1171;-56
2021/12/31 01:01:20;;;;;;;;;;;16.60;99.90;;;;;;5072642;28;1338;-45
2021/12/31 01:03:46;;;;;;;;;;;16.60;99.90;;;;;;5074275;28;983;-46
2021/12/31 01:06:12;;;;;;;;;;;16.50;99.90;;;;;;5073117;28;801;-45
2021/12/31 01:08:39;;;;;;;;;;;16.60;99.90;;;;;;5075180;28;817;-55
2021/12/31 01:11:06;;;;;;;;;;;16.50;99.90;;;;;;5074828;28;882;-55
2021/12/31 01:13:56;;;;;;;;;;;16.50;99.90;;;;;;5074795;28;1897;-45
2021/12/31 01:16:34;;;;;;;;;;;16.50;99.90;;;;;;5040329;28;1647;-45
2021/12/31 01:21:26;;;;;;;;;;;16.50;99.90;;;;;;5074739;28;1108;-55
2021/12/31 01:23:52;;;;;;;;;;;16.50;99.90;;;;;;5074906;28;823;-55
2021/12/31 01:26:19;;;;;;;;;;;16.50;99.90;;;;;;5074796;28;817;-55
2021/12/31 01:28:46;;;;;;;;;;;16.50;99.90;;;;;;5073715;28;938;-55
2021/12/31 01:31:13;;;;;;;;;;;16.50;99.90;;;;;;5076516;28;774;-55
2021/12/31 01:33:40;;;;;;;;;;;16.40;99.90;;;;;;5073094;28;1957;-56
2021/12/31 01:36:07;;;;;;;;;;;16.40;99.90;;;;;;5075849;28;1029;-56
2021/12/31 01:38:35;;;;;;;;;;;16.40;99.90;;;;;;5076242;28;882;-55
2021/12/31 01:41:01;;;;;;;;;;;16.40;99.90;;;;;;5043311;28;1094;-56
2021/12/31 01:43:27;;;;;;;;;;;16.40;99.90;;;;;;5076043;28;900;-45
2021/12/31 01:45:55;;;;;;;;;;;16.40;99.90;;;;;;5073460;28;1225;-46
2021/12/31 01:48:37;;;;;;;;;;;16.40;99.90;;;;;;5076440;28;900;-55
2021/12/31 01:51:04;;;;;;;;;;;16.40;99.90;;;;;;5074563;28;1182;-45
2021/12/31 01:53:31;;;;;;;;;;;16.40;99.90;;;;;;5076127;28;1971;-55
2021/12/31 01:55:59;;;;;;;;;;;16.40;99.90;;;;;;5076112;28;884;-45
2021/12/31 01:58:26;;;;;;;;;;;16.30;99.90;;;;;;5076098;28;769;-45
2021/12/31 02:00:53;;;;;;;;;;;16.30;99.90;;;;;;5073807;28;1022;-55
2021/12/31 02:03:20;;;;;;;;;;;16.30;99.90;;;;;;5075871;28;969;-55
2021/12/31 02:05:48;;;;;;;;;;;16.30;99.90;;;;;;5075972;28;861;-56
2021/12/31 02:08:20;;;;;;;;;;;16.30;99.90;;;;;;5075834;28;791;-45
2021/12/31 02:10:50;;;;;;;;;;;16.30;99.90;;;;;;5075971;28;828;-46
2021/12/31 02:13:17;;;;;;;;;;;16.30;99.90;;;;;;5075924;28;1882;-55
2021/12/31 02:15:44;;;;;;;;;;;16.30;99.90;;;;;;5075972;28;910;-45
2021/12/31 02:18:12;;;;;;;;;;;16.30;99.90;;;;;;5075756;28;2172;-46
2021/12/31 02:20:44;;;;;;;;;;;16.30;99.90;;;;;;5076078;28;832;-45
2021/12/31 02:23:23;;;;;;;;;;;16.20;99.90;;;;;;5075007;28;793;-45
2021/12/31 02:25:49;;;;;;;;;;;16.20;99.90;;;;;;5075733;28;877;-45
2021/12/31 02:28:19;;;;;;;;;;;16.20;99.90;;;;;;5075600;28;838;-55
2021/12/31 02:30:47;;;;;;;;;;;16.20;99.90;;;;;;5075627;28;888;-45
2021/12/31 02:33:14;;;;;;;;;;;16.20;99.90;;;;;;5074399;28;1968;-46
2021/12/31 02:35:41;;;;;;;;;;;16.20;99.90;;;;;;5073577;28;994;-45
2021/12/31 02:38:08;;;;;;;;;;;16.20;99.90;;;;;;5075596;28;858;-47
2021/12/31 02:40:35;;;;;;;;;;;16.20;99.90;;;;;;5073882;28;1034;-55
2021/12/31 02:43:01;;;;;;;;;;;16.20;99.90;;;;;;5073695;28;978;-45
2021/12/31 02:45:32;;;;;;;;;;;16.20;99.90;;;;;;5073922;28;908;-46
2021/12/31 02:48:02;;;;;;;;;;;16.20;99.90;;;;;;5073156;28;874;-55
2021/12/31 02:50:34;;;;;;;;;;;16.20;99.90;;;;;;5073925;28;866;-45
2021/12/31 02:53:21;;;;;;;;;;;16.20;99.90;;;;;;5056185;28;1905;-55
2021/12/31 02:55:51;;;;;;;;;;;16.10;99.90;;;;;;5073885;28;1051;-56
2021/12/31 02:58:17;;;;;;;;;;;16.10;99.90;;;;;;5073702;28;911;-45
2021/12/31 03:00:45;;;;;;;;;;;16.10;99.90;;;;;;5074045;28;1164;-57
2021/12/31 03:03:12;;;;;;;;;;;16.10;99.90;;;;;;5074053;28;790;-55
2021/12/31 03:05:40;;;;;;;;;;;16.10;99.90;;;;;;5073998;28;1452;-46
2021/12/31 03:08:08;;;;;;;;;;;16.10;99.90;;;;;;5073871;28;858;-56
2021/12/31 03:10:35;;;;;;;;;;;16.10;99.90;;;;;;5023885;28;995;-55
2021/12/31 03:13:01;;;;;;;;;;;16.10;99.90;;;;;;5073446;28;1902;-45
2021/12/31 03:15:27;;;;;;;;;;;16.10;99.90;;;;;;5073837;28;872;-56
2021/12/31 03:17:59;;;;;;;;;;;16.10;99.90;;;;;;5074493;28;984;-56
2021/12/31 03:20:36;;;;;;;;;;;16.10;99.90;;;;;;5075501;28;813;-45
2021/12/31 03:23:04;;;;;;;;;;;16.10;99.90;;;;;;5075272;28;982;-55
2021/12/31 03:25:31;;;;;;;;;;;16.10;99.90;;;;;;5075251;28;861;-45
2021/12/31 03:27:57;;;;;;;;;;;16.10;99.90;;;;;;5074983;28;864;-45
2021/12/31 03:30:23;;;;;;;;;;;16.00;99.90;;;;;;5078660;28;853;-45
2021/12/31 03:32:50;;;;;;;;;;;16.10;99.90;;;;;;5077952;28;1902;-56
2021/12/31 03:35:16;;;;;;;;;;;16.00;99.90;;;;;;5078717;28;808;-55
2021/12/31 03:37:44;;;;;;;;;;;16.00;99.90;;;;;;5078418;28;750;-55
2021/12/31 03:40:10;;;;;;;;;;;16.00;99.90;;;;;;5078676;28;872;-45
2021/12/31 03:42:36;;;;;;;;;;;16.00;99.90;;;;;;5078457;28;1010;-45
2021/12/31 03:45:03;;;;;;;;;;;16.00;99.90;;;;;;5078387;28;849;-55
2021/12/31 03:47:29;;;;;;;;;;;16.00;99.90;;;;;;5078602;28;911;-56
2021/12/31 03:49:57;;;;;;;;;;;16.00;99.90;;;;;;5078346;28;895;-55
2021/12/31 03:52:23;;;;;;;;;;;16.00;99.90;;;;;;5078250;28;1178;-55
2021/12/31 03:54:49;;;;;;;;;;;16.00;99.90;;;;;;5075301;28;1922;-55
2021/12/31 03:57:17;;;;;;;;;;;16.00;99.90;;;;;;5078245;28;879;-45
2021/12/31 03:59:44;;;;;;;;;;;16.00;99.90;;;;;;5077290;28;1176;-45
2021/12/31 04:02:11;;;;;;;;;;;16.00;99.90;;;;;;5078221;28;919;-45
2021/12/31 04:04:37;;;;;;;;;;;16.00;99.90;;;;;;5077754;28;1266;-55
2021/12/31 04:07:03;;;;;;;;;;;16.00;99.90;;;;;;5077899;28;789;-46
2021/12/31 04:09:29;;;;;;;;;;;15.90;99.90;;;;;;5077913;28;998;-46
2021/12/31 04:11:54;;;;;;;;;;;16.00;99.90;;;;;;5078058;28;881;-45
2021/12/31 04:14:22;;;;;;;;;;;15.90;99.90;;;;;;5076653;28;1976;-45
2021/12/31 04:16:49;;;;;;;;;;;15.90;99.90;;;;;;5077806;28;789;-46
2021/12/31 04:19:16;;;;;;;;;;;15.90;99.90;;;;;;5078089;28;816;-45
2021/12/31 04:21:43;;;;;;;;;;;15.90;99.90;;;;;;5077927;28;890;-56
2021/12/31 04:24:27;;;;;;;;;;;15.90;99.90;;;;;;5077860;28;978;-55
2021/12/31 04:26:54;;;;;;;;;;;15.90;99.90;;;;;;5076969;28;1790;-45
2021/12/31 04:29:20;;;;;;;;;;;15.90;99.90;;;;;;5076372;28;1306;-46
2021/12/31 04:31:46;;;;;;;;;;;15.90;99.90;;;;;;5077564;28;1246;-55
2021/12/31 04:34:14;;;;;;;;;;;15.90;99.90;;;;;;5076156;28;1981;-55
2021/12/31 04:36:40;;;;;;;;;;;15.90;99.90;;;;;;5076896;28;1050;-55
2021/12/31 04:39:06;;;;;;;;;;;15.90;99.90;;;;;;5077333;28;752;-45
2021/12/31 04:41:31;;;;;;;;;;;15.90;99.90;;;;;;5077323;28;1001;-55
2021/12/31 04:43:57;;;;;;;;;;;15.90;99.90;;;;;;5077169;28;860;-45
2021/12/31 04:46:24;;;;;;;;;;;15.90;99.90;;;;;;5077229;28;863;-55
2021/12/31 04:48:51;;;;;;;;;;;15.90;99.90;;;;;;5077157;28;759;-45
2021/12/31 04:51:20;;;;;;;;;;;15.80;99.90;;;;;;5077426;28;891;-46
2021/12/31 04:53:47;;;;;;;;;;;15.90;99.90;;;;;;5076599;28;1902;-46
2021/12/31 04:56:14;;;;;;;;;;;15.80;99.90;;;;;;5076942;28;1859;-55
2021/12/31 04:58:40;;;;;;;;;;;15.80;99.90;;;;;;5076900;28;849;-55
2021/12/31 05:01:06;;;;;;;;;;;15.80;99.90;;;;;;5076750;28;793;-45
2021/12/31 05:03:32;;;;;;;;;;;15.80;99.90;;;;;;5077042;28;852;-46
2021/12/31 05:05:58;;;;;;;;;;;15.80;99.90;;;;;;5076854;28;879;-56
2021/12/31 05:08:25;;;;;;;;;;;15.80;99.90;;;;;;5076731;28;1175;-55
2021/12/31 05:10:51;;;;;;;;;;;15.80;99.90;;;;;;5076380;28;897;-55
2021/12/31 05:13:20;;;;;;;;;;;15.80;99.90;;;;;;5076840;28;1963;-55
2021/12/31 05:15:48;;;;;;;;;;;15.80;99.90;;;;;;5076726;28;1600;-55
2021/12/31 05:18:16;;;;;;;;;;;15.80;99.90;;;;;;5076765;28;858;-46
2021/12/31 05:20:41;;;;;;;;;;;15.80;99.90;;;;;;5076138;28;960;-45
2021/12/31 05:23:07;;;;;;;;;;;15.80;99.90;;;;;;5076371;28;808;-45
2021/12/31 05:25:34;;;;;;;;;;;15.80;99.90;;;;;;5076516;28;773;-55
2021/12/31 05:28:01;;;;;;;;;;;15.80;99.90;;;;;;5068772;28;1369;-55
2021/12/31 05:30:29;;;;;;;;;;;15.80;99.90;;;;;;5073038;28;1076;-55
2021/12/31 05:32:55;;;;;;;;;;;15.80;99.90;;;;;;5074863;28;840;-45
2021/12/31 05:35:21;;;;;;;;;;;15.80;99.90;;;;;;5076189;28;2031;-55
2021/12/31 05:37:50;;;;;;;;;;;15.80;99.90;;;;;;5075999;28;809;-55
2021/12/31 05:40:16;;;;;;;;;;;15.70;99.90;;;;;;5055459;28;1010;-55
2021/12/31 05:42:42;;;;;;;;;;;15.70;99.90;;;;;;5055440;28;829;-54
2021/12/31 05:45:09;;;;;;;;;;;15.70;99.90;;;;;;5055384;28;949;-46
2021/12/31 05:47:36;;;;;;;;;;;15.70;99.90;;;;;;5055162;28;823;-55
2021/12/31 05:50:04;;;;;;;;;;;15.70;99.90;;;;;;5054987;28;982;-55
2021/12/31 05:52:31;;;;;;;;;;;15.70;99.90;;;;;;5054293;28;1145;-46
2021/12/31 05:54:57;;;;;;;;;;;15.70;99.90;;;;;;5055287;28;1969;-45
2021/12/31 05:57:24;;;;;;;;;;;15.70;99.90;;;;;;5053997;28;1326;-46
2021/12/31 05:59:51;;;;;;;;;;;15.70;99.90;;;;;;5056555;28;1045;-46
2021/12/31 06:02:17;;;;;;;;;;;15.70;99.90;;;;;;5054757;28;995;-46
2021/12/31 06:04:45;;;;;;;;;;;15.80;99.90;;;;;;5055058;28;920;-45
2021/12/31 06:07:11;;;;;;;;;;;15.80;99.90;;;;;;5054971;28;845;-45
2021/12/31 06:09:37;;;;;;;;;;;15.80;99.90;;;;;;5055003;28;947;-45
2021/12/31 06:12:03;;;;;;;;;;;15.80;99.90;;;;;;5071852;28;881;-55
2021/12/31 06:14:30;;;;;;;;;;;15.80;99.90;;;;;;5075794;28;1930;-55
2021/12/31 06:17:03;;;;;;;;;;;15.90;99.90;;;;;;5075880;28;876;-56
2021/12/31 06:19:30;;;;;;;;;;;15.90;99.90;;;;;;5076105;28;773;-45
2021/12/31 06:21:58;;;;;;;;;;;15.90;99.90;;;;;;5074147;28;872;-45
2021/12/31 06:24:25;;;;;;;;;;;16.00;99.90;;;;;;5074989;28;868;-46
2021/12/31 06:26:51;;;;;;;;;;;16.00;99.90;;;;;;5073306;28;964;-46
2021/12/31 06:29:17;;;;;;;;;;;16.10;99.90;;;;;;5072527;28;878;-45
2021/12/31 06:31:43;;;;;;;;;;;16.10;99.90;;;;;;5044998;28;959;-46
2021/12/31 06:34:09;;;;;;;;;;;16.20;99.90;;;;;;5054637;28;1969;-45
2021/12/31 06:36:35;;;;;;;;;;;16.20;99.90;;;;;;5054803;28;1100;-55
2021/12/31 06:39:03;;;;;;;;;;;16.20;99.90;;;;;;5054301;28;954;-45
2021/12/31 06:41:30;;;;;;;;;;;16.30;99.90;;;;;;5054671;28;932;-55
2021/12/31 06:43:57;;;;;;;;;;;16.30;99.90;;;;;;5054768;28;822;-45
2021/12/31 06:46:24;;;;;;;;;;;16.30;99.90;;;;;;5054666;28;950;-55
2021/12/31 06:48:51;;;;;;;;;;;16.40;99.90;;;;;;5054755;28;806;-45
2021/12/31 06:51:17;;;;;;;;;;;16.40;99.90;;;;;;5054748;28;939;-45
2021/12/31 06:53:44;;;;;;;;;;;16.40;99.90;;;;;;5054339;28;1914;-45
2021/12/31 06:56:11;;;;;;;;;;;16.50;99.90;;;;;;5054553;28;946;-45
2021/12/31 06:58:37;;;;;;;;;;;16.50;99.90;;;;;;5071627;28;877;-46
2021/12/31 07:01:03;;;;;;;;;;;16.50;99.90;;;;;;5075163;28;822;-55
2021/12/31 07:03:31;;;;;;;;;;;16.60;99.90;;;;;;5077690;28;932;-45
2021/12/31 07:05:58;;;;;;;;;;;16.60;99.90;;;;;;5079263;28;992;-45
2021/12/31 07:08:26;;;;;;;;;;;16.60;99.90;;;;;;5079282;28;774;-55
2021/12/31 07:10:52;;;;;;;;;;;16.70;99.90;;;;;;5076013;28;1066;-45
2021/12/31 07:13:19;;;;;;;;;;;16.70;99.90;;;;;;5079340;28;902;-55
2021/12/31 07:15:48;;;;;;;;;;;16.70;99.90;;;;;;5078708;28;1898;-46
2021/12/31 07:18:14;;;;;;;;;;;16.70;99.90;;;;;;5079017;28;949;-55
2021/12/31 07:20:42;;;;;;;;;;;16.80;99.90;;;;;;5078896;28;808;-56
2021/12/31 07:23:10;;;;;;;;;;;16.80;99.90;;;;;;5078185;28;911;-55
2021/12/31 07:25:38;;;;;;;;;;;16.80;99.90;;;;;;5078798;28;898;-45
2021/12/31 07:28:05;;;;;;;;;;;16.80;99.90;;;;;;5078720;28;816;-45
2021/12/31 07:30:31;;;;;;;;;;;16.80;99.90;;;;;;5077420;28;1169;-45
2021/12/31 07:32:57;;;;;;;;;;;16.80;99.90;;;;;;5077257;28;1463;-46
2021/12/31 07:35:24;;;;;;;;;;;16.80;99.90;;;;;;5077140;28;1879;-45
2021/12/31 07:37:53;;;;;;;;;;;16.90;99.90;;;;;;5078554;28;762;-45
2021/12/31 07:40:36;;;;;;;;;;;16.80;99.90;;;;;;5078497;28;900;-45
2021/12/31 07:43:04;;;;;;;;;;;16.90;99.90;;;;;;5076826;28;925;-45
2021/12/31 07:45:30;;;;;;;;;;;16.90;99.90;;;;;;5078423;28;891;-55
2021/12/31 07:47:57;;;;;;;;;;;16.90;99.90;;;;;;5078224;28;821;-56
2021/12/31 07:50:23;;;;;;;;;;;16.90;99.90;;;;;;5078354;28;879;-56
2021/12/31 07:52:50;;;;;;;;;;;17.00;99.90;;;;;;5078236;28;1013;-45
2021/12/31 07:55:16;;;;;;;;;;;17.00;99.90;;;;;;5078127;28;1905;-45
2021/12/31 07:57:43;;;;;;;;;;;17.00;99.90;;;;;;5078147;28;877;-55
2021/12/31 08:00:12;;;;;;;;;;;17.00;99.90;;;;;;5077710;28;1013;-46
2021/12/31 08:02:39;;;;;;;;;;;17.00;99.90;;;;;;5077930;28;978;-55
2021/12/31 08:05:05;;;;;;;;;;;17.00;99.90;;;;;;5078099;28;918;-56
2021/12/31 08:07:32;;;;;;;;;;;17.00;99.90;;;;;;5074711;28;1270;-46
2021/12/31 08:09:58;;;;;;;;;;;17.00;99.90;;;;;;5076605;28;893;-46
2021/12/31 08:12:24;;;;;;;;;;;17.10;99.90;;;;;;5077916;28;855;-55
2021/12/31 08:14:50;;;;;;;;;;;17.10;99.90;;;;;;5077195;28;1977;-55
2021/12/31 08:17:16;;;;;;;;;;;17.10;99.90;;;;;;5077861;28;836;-45
2021/12/31 08:19:43;;;;;;;;;;;17.10;99.90;;;;;;5078083;28;810;-55
2021/12/31 08:22:11;;;;;;;;;;;17.10;99.90;;;;;;5077726;28;849;-45
2021/12/31 08:24:39;;;;;;;;;;;17.10;99.90;;;;;;5060107;28;1067;-55
2021/12/31 08:27:04;;;;;;;;;;;17.10;99.90;;;;;;5077546;28;855;-45
2021/12/31 08:29:30;;;;;;;;;;;17.10;99.90;;;;;;5077879;28;798;-55
2021/12/31 08:31:56;;;;;;;;;;;17.10;99.90;;;;;;5077372;28;917;-46
2021/12/31 08:34:22;;;;;;;;;;;17.20;99.90;;;;;;5077517;28;1965;-45
2021/12/31 08:36:48;;;;;;;;;;;17.20;99.90;;;;;;5077684;28;893;-45
2021/12/31 08:39:15;;;;;;;;;;;17.20;99.90;;;;;;5077255;28;857;-56
2021/12/31 08:41:44;;;;;;;;;;;17.20;99.90;;;;;;5071759;28;1070;-55
2021/12/31 08:44:11;;;;;;;;;;;17.20;99.90;;;;;;5077255;28;935;-56
2021/12/31 08:46:37;;;;;;;;;;;17.20;99.90;;;;;;5077453;28;826;-55
2021/12/31 08:49:03;;;;;;;;;;;17.20;99.90;;;;;;5077251;28;888;-55
2021/12/31 08:51:29;;;;;;;;;;;17.20;99.90;;;;;;5077185;28;933;-45
2021/12/31 08:53:56;;;;;;;;;;;17.20;99.90;;;;;;5076755;28;1906;-45
2021/12/31 08:56:22;;;;;;;;;;;17.10;99.90;;;;;;5076926;28;1003;-45
2021/12/31 08:58:48;;;;;;;;;;;17.20;99.90;;;;;;5076884;28;882;-45
2021/12/31 09:01:16;;;;;;;;;;;17.20;99.90;;;;;;5075559;28;1153;-46
2021/12/31 09:03:43;;;;;;;;;;;17.20;99.90;;;;;;5067348;28;1344;-45
2021/12/31 09:06:09;;;;;;;;;;;17.20;99.90;;;;;;5072250;28;1408;-45
2021/12/31 09:08:35;;;;;;;;;;;17.20;99.90;;;;;;5072736;28;1378;-55
2021/12/31 09:11:02;;;;;;;;;;;17.20;99.90;;;;;;5073772;28;1147;-50
2021/12/31 09:13:31;;;;;;;;;;;17.20;99.90;;;;;;5041813;28;1155;-56
2021/12/31 09:15:57;;;;;;;;;;;17.20;99.90;;;;;;5033662;28;1963;-55
2021/12/31 09:18:24;;;;;;;;;;;17.20;99.90;;;;;;5072087;28;1267;-45
2021/12/31 09:20:53;;;;;;;;;;;17.20;99.90;;;;;;5073456;28;1335;-45
2021/12/31 09:23:19;;;;;;;;;;;17.10;99.90;;;;;;5057494;28;1132;-45
2021/12/31 09:25:49;;;;;;;;;;;17.20;99.90;;;;;;5073709;28;1050;-45
2021/12/31 09:28:16;;;;;;;;;;;17.20;99.90;;;;;;5069265;28;1428;-45
2021/12/31 09:30:44;;;;;;;;;;;17.10;99.90;;;;;;5074619;28;958;-45
2021/12/31 09:33:10;;;;;;;;;;;17.10;99.90;;;;;;5074606;28;957;-56
2021/12/31 09:35:36;;;;;;;;;;;17.10;99.90;;;;;;5073494;28;1906;-55
2021/12/31 09:38:08;;;;;;;;;;;17.10;99.90;;;;;;5074446;28;797;-56
2021/12/31 09:40:34;;;;;;;;;;;17.20;99.90;;;;;;5075633;28;910;-46
2021/12/31 09:43:03;;;;;;;;;;;17.10;99.90;;;;;;5076091;28;918;-45
2021/12/31 09:45:30;;;;;;;;;;;17.10;99.90;;;;;;5076438;28;906;-56
2021/12/31 09:47:59;;;;;;;;;;;17.10;99.90;;;;;;5072687;28;1066;-56
2021/12/31 09:50:26;;;;;;;;;;;17.20;99.90;;;;;;5064649;28;1362;-56
2021/12/31 09:52:54;;;;;;;;;;;17.20;99.90;;;;;;5075802;28;1081;-56
2021/12/31 09:55:38;;;;;;;;;;;17.20;99.90;;;;;;5071420;28;1910;-56
2021/12/31 09:58:05;;;;;;;;;;;17.20;99.90;;;;;;5066153;28;1293;-55
2021/12/31 10:00:31;;;;;;;;;;;17.20;99.90;;;;;;5071381;28;1279;-56
2021/12/31 10:03:16;;;;;;;;;;;17.20;99.90;;;;;;5070516;28;1201;-56
2021/12/31 10:05:46;;;;;;;;;;;17.20;99.90;;;;;;5071587;28;1083;-56
2021/12/31 10:08:13;;;;;;;;;;;17.20;99.90;;;;;;5051982;28;1171;-55
2021/12/31 10:10:39;;;;;;;;;;;17.30;99.90;;;;;;5070525;28;951;-45
2021/12/31 10:13:07;;;;;;;;;;;17.30;99.90;;;;;;5071981;28;1145;-45
2021/12/31 10:15:38;;;;;;;;;;;17.30;99.90;;;;;;5073993;28;1967;-45
2021/12/31 10:18:15;;;;;;;;;;;17.30;99.90;;;;;;5063783;28;994;-46
2021/12/31 10:21:00;;;;;;;;;;;17.30;99.90;;;;;;5069318;28;1360;-45
2021/12/31 10:23:27;;;;;;;;;;;17.30;99.90;;;;;;5072833;28;1071;-55
2021/12/31 10:26:13;;;;;;;;;;;17.30;99.90;;;;;;5073384;28;1214;-55
2021/12/31 10:28:54;;;;;;;;;;;17.30;99.90;;;;;;5070674;28;1128;-54
2021/12/31 10:31:22;;;;;;;;;;;17.30;99.90;;;;;;5072705;28;1304;-55
2021/12/31 10:33:49;;;;;;;;;;;17.30;99.90;;;;;;5066234;28;1356;-54
2021/12/31 10:36:43;;;;;;;;;;;17.30;99.90;;;;;;5062898;28;1894;-54
2021/12/31 10:39:19;;;;;;;;;;;17.30;99.90;;;;;;5069651;28;2034;-55
2021/12/31 10:41:56;;;;;;;;;;;17.30;99.90;;;;;;5072011;28;1079;-55
2021/12/31 10:44:24;;;;;;;;;;;17.30;99.90;;;;;;5076944;28;1310;-55
2021/12/31 10:47:06;;;;;;;;;;;17.30;99.90;;;;;;5079717;28;777;-55
2021/12/31 10:49:32;;;;;;;;;;;17.40;99.90;;;;;;5079440;28;865;-54
2021/12/31 10:51:59;;;;;;;;;;;17.40;99.90;;;;;;5078461;28;825;-55
2021/12/31 10:54:47;;;;;;;;;;;17.40;99.90;;;;;;5093434;28;1917;-54
2021/12/31 10:57:33;;;;;;;;;;;17.40;99.90;;;;;;5079438;28;866;-55
2021/12/31 10:59:59;;;;;;;;;;;17.40;99.90;;;;;;5078202;28;1003;-54
2021/12/31 11:02:26;;;;;;;;;;;17.40;99.90;;;;;;5078093;28;852;-54
2021/12/31 11:04:54;;;;;;;;;;;17.40;99.90;;;;;;5079426;28;781;-54
2021/12/31 11:07:21;;;;;;;;;;;17.40;99.90;;;;;;5076209;28;1083;-54
2021/12/31 11:09:49;;;;;;;;;;;17.30;99.90;;;;;;5074530;28;1205;-55
2021/12/31 11:12:17;;;;;;;;;;;17.30;99.90;;;;;;5074777;28;1176;-56
2021/12/31 11:14:43;;;;;;;;;;;17.30;99.90;;;;;;5071867;28;1898;-55
2021/12/31 11:17:09;;;;;;;;;;;17.30;99.90;;;;;;5075168;28;1297;-54
2021/12/31 11:19:39;;;;;;;;;;;17.30;99.90;;;;;;5078971;28;837;-54
2021/12/31 11:22:06;;;;;;;;;;;17.30;99.90;;;;;;5078907;28;762;-54
2021/12/31 11:24:34;;;;;;;;;;;17.30;99.90;;;;;;5073756;28;1369;-45
2021/12/31 11:27:21;;;;;;;;;;;17.30;99.90;;;;;;5078498;28;1169;-46
2021/12/31 11:29:47;;;;;;;;;;;17.30;99.90;;;;;;5078275;28;1131;-45
2021/12/31 11:32:14;;;;;;;;;;;17.30;99.90;;;;;;5075237;28;1162;-45
2021/12/31 11:34:40;;;;;;;;;;;17.30;99.90;;;;;;5071204;28;1989;-45
2021/12/31 11:37:06;;;;;;;;;;;17.30;99.90;;;;;;5075019;28;1074;-45
2021/12/31 11:39:36;;;;;;;;;;;17.30;99.90;;;;;;5076061;28;994;-45
2021/12/31 11:42:03;;;;;;;;;;;17.30;99.90;;;;;;5075860;28;1344;-45
2021/12/31 11:44:30;;;;;;;;;;;17.30;99.90;;;;;;5074969;28;1408;-45
2021/12/31 11:47:08;;;;;;;;;;;17.20;99.90;;;;;;5077992;28;817;-45
2021/12/31 11:49:34;;;;;;;;;;;17.20;99.90;;;;;;5076858;28;845;-45
2021/12/31 11:52:08;;;;;;;;;;;17.20;99.90;;;;;;5076238;28;881;-46
2021/12/31 11:54:37;;;;;;;;;;;17.20;99.90;;;;;;5077623;28;1918;-45
2021/12/31 11:57:08;;;;;;;;;;;17.20;99.90;;;;;;5077492;28;863;-45
2021/12/31 11:59:35;;;;;;;;;;;17.20;99.90;;;;;;5078111;28;788;-45
2021/12/31 12:02:18;;;;;;;;;;;17.20;99.90;;;;;;5077083;28;981;-45
2021/12/31 12:04:59;;;;;;;;;;;17.20;99.90;;;;;;5059818;28;911;-45
2021/12/31 12:07:33;;;;;;;;;;;17.10;99.90;;;;;;5076198;28;1422;-45
2021/12/31 12:09:59;;;;;;;;;;;17.10;99.90;;;;;;5077321;28;1082;-45
2021/12/31 12:12:49;;;;;;;;;;;17.20;99.90;;;;;;5078116;28;876;-45
2021/12/31 12:15:19;;;;;;;;;;;17.20;99.90;;;;;;5076474;28;1898;-45
2021/12/31 12:17:45;;;;;;;;;;;17.10;99.90;;;;;;5077785;28;762;-45
2021/12/31 12:20:18;;;;;;;;;;;17.20;99.90;;;;;;5077745;28;848;-45
2021/12/31 12:22:50;;;;;;;;;;;17.10;99.90;;;;;;5076105;28;957;-45
2021/12/31 12:25:22;;;;;;;;;;;17.10;99.90;;;;;;5075934;28;865;-45
2021/12/31 12:27:52;;;;;;;;;;;17.10;99.90;;;;;;5075844;28;981;-45
2021/12/31 12:30:18;;;;;;;;;;;17.10;99.90;;;;;;5075950;28;862;-45
2021/12/31 12:35:29;;;;;;;;;;;17.10;99.90;;;;;;5075676;28;1969;-55
2021/12/31 12:38:13;;;;;;;;;;;17.10;99.90;;;;;;5075936;28;822;-54
2021/12/31 12:40:44;;;;;;;;;;;17.20;99.90;;;;;;5075990;28;992;-54
2021/12/31 12:43:18;;;;;;;;;;;17.20;99.90;;;;;;5075778;28;786;-46
2021/12/31 12:45:49;;;;;;;;;;;17.10;99.90;;;;;;5058283;28;850;-45
2021/12/31 12:48:15;;;;;;;;;;;17.20;99.90;;;;;;5075495;28;1648;-55
2021/12/31 12:50:48;;;;;;;;;;;17.20;99.90;;;;;;5075574;28;778;-54
2021/12/31 12:53:21;;;;;;;;;;;17.20;99.90;;;;;;5074716;28;1295;-54
2021/12/31 12:55:48;;;;;;;;;;;17.20;99.90;;;;;;5075382;28;2281;-54
2021/12/31 12:58:22;;;;;;;;;;;17.20;99.90;;;;;;5074466;28;1101;-54
2021/12/31 13:00:53;;;;;;;;;;;17.10;99.90;;;;;;5075361;28;1039;-54
2021/12/31 13:03:19;;;;;;;;;;;17.20;99.90;;;;;;5076723;28;814;-45
2021/12/31 13:05:45;;;;;;;;;;;17.10;99.90;;;;;;5077352;28;970;-45
2021/12/31 13:08:15;;;;;;;;;;;17.10;99.90;;;;;;5076557;28;1118;-45
2021/12/31 13:10:43;;;;;;;;;;;17.10;99.90;;;;;;5075897;28;900;-45
2021/12/31 13:13:10;;;;;;;;;;;17.10;99.90;;;;;;5076583;28;873;-54
2021/12/31 13:15:38;;;;;;;;;;;17.10;99.90;;;;;;5076665;28;1975;-54
2021/12/31 13:18:06;;;;;;;;;;;17.10;99.90;;;;;;5058315;28;944;-54
2021/12/31 13:20:33;;;;;;;;;;;17.10;99.90;;;;;;5076479;28;1052;-46
2021/12/31 13:23:00;;;;;;;;;;;17.10;99.90;;;;;;5058482;28;848;-45
2021/12/31 13:25:56;;;;;;;;;;;17.10;99.90;;;;;;5076367;28;776;-45
2021/12/31 13:28:24;;;;;;;;;;;17.10;99.90;;;;;;5067812;28;1378;-45
2021/12/31 13:30:52;;;;;;;;;;;17.10;99.90;;;;;;5076259;28;934;-45
2021/12/31 13:33:25;;;;;;;;;;;17.10;99.90;;;;;;5076170;28;1168;-54
2021/12/31 13:36:10;;;;;;;;;;;17.00;99.90;;;;;;5076200;28;1902;-54
2021/12/31 13:38:55;;;;;;;;;;;17.10;99.90;;;;;;5071098;28;1364;-45
2021/12/31 13:41:21;;;;;;;;;;;17.00;99.90;;;;;;5076132;28;916;-45
2021/12/31 13:43:58;;;;;;;;;;;17.00;99.90;;;;;;5076140;28;1146;-45
2021/12/31 13:46:28;;;;;;;;;;;17.00;99.90;;;;;;5076242;28;865;-45
2021/12/31 13:49:23;;;;;;;;;;;17.00;99.90;;;;;;5076007;28;789;-45
2021/12/31 13:51:49;;;;;;;;;;;17.00;99.90;;;;;;5067188;28;1406;-45
2021/12/31 13:54:17;;;;;;;;;;;17.00;99.90;;;;;;5075693;28;1228;-45
2021/12/31 13:56:47;;;;;;;;;;;16.90;99.90;;;;;;5075971;28;1969;-54
2021/12/31 13:59:31;;;;;;;;;;;17.00;99.90;;;;;;5075389;28;997;-54
2021/12/31 14:02:19;;;;;;;;;;;17.00;99.90;;;;;;5075794;28;863;-54
2021/12/31 14:04:54;;;;;;;;;;;16.90;99.90;;;;;;5075858;28;860;-45
2021/12/31 14:07:22;;;;;;;;;;;16.90;99.90;;;;;;5076044;28;1721;-54
2021/12/31 14:09:49;;;;;;;;;;;16.90;99.90;;;;;;5076001;28;885;-54
2021/12/31 14:12:16;;;;;;;;;;;16.90;99.90;;;;;;5074352;28;1245;-54
2021/12/31 14:14:43;;;;;;;;;;;16.90;99.90;;;;;;5075648;28;1906;-54
2021/12/31 14:17:10;;;;;;;;;;;16.90;99.90;;;;;;5075808;28;833;-54
2021/12/31 14:19:39;;;;;;;;;;;16.90;99.90;;;;;;5075873;28;860;-54
2021/12/31 14:22:07;;;;;;;;;;;16.80;99.90;;;;;;5074501;28;816;-55
2021/12/31 14:24:33;;;;;;;;;;;16.80;99.90;;;;;;5075870;28;1138;-55
2021/12/31 14:26:59;;;;;;;;;;;16.80;99.90;;;;;;5075712;28;828;-54
2021/12/31 14:29:28;;;;;;;;;;;16.90;99.90;;;;;;5075716;28;854;-54
2021/12/31 14:31:54;;;;;;;;;;;16.80;99.90;;;;;;5075367;28;911;-45
2021/12/31 14:34:24;;;;;;;;;;;16.90;99.90;;;;;;5075659;28;820;-45
2021/12/31 14:36:53;;;;;;;;;;;16.90;99.90;;;;;;5075486;28;1898;-45
2021/12/31 14:39:20;;;;;;;;;;;16.90;99.90;;;;;;5075670;28;828;-45
2021/12/31 14:41:46;;;;;;;;;;;16.90;99.90;;;;;;5075538;28;796;-47
2021/12/31 14:44:13;;;;;;;;;;;16.90;99.90;;;;;;5075542;28;804;-46
2021/12/31 14:46:40;;;;;;;;;;;17.00;99.90;;;;;;5072517;28;1048;-45
2021/12/31 14:49:06;;;;;;;;;;;17.00;99.90;;;;;;5071539;28;1915;-45
2021/12/31 14:51:33;;;;;;;;;;;17.00;99.90;;;;;;5075490;28;832;-45
2021/12/31 14:54:01;;;;;;;;;;;17.00;99.90;;;;;;5075210;28;1167;-45